sensor_id;sensor_type;location;lat;lon;timestamp;P1;durP1;ratioP1;P2;durP2;ratioP2
41446;SDS011;27185;52.040;4.490;2023-02-12T00:01:56;12.77;;;8.65;;
41446;SDS011;27185;52.040;4.490;2023-02-12T00:04:42;12.57;;;8.45;;
41446;SDS011;27185;52.040;4.490;2023-02-12T00:07:29;15.48;;;9.18;;
41446;SDS011;27185;52.040;4.490;2023-02-12T00:10:15;11.98;;;8.95;;
41446;SDS011;27185;52.040;4.490;2023-02-12T00:13:01;15.23;;;9.07;;
41446;SDS011;27185;52.040;4.490;2023-02-12T00:15:46;11.35;;;8.05;;
41446;SDS011;27185;52.040;4.490;2023-02-12T00:18:32;11.23;;;7.43;;
41446;SDS011;27185;52.040;4.490;2023-02-12T00:21:18;13.57;;;8.35;;
41446;SDS011;27185;52.040;4.490;2023-02-12T00:24:04;12.15;;;8.60;;
41446;SDS011;27185;52.040;4.490;2023-02-12T00:26:49;11.20;;;8.23;;
41446;SDS011;27185;52.040;4.490;2023-02-12T00:29:36;12.70;;;8.13;;
41446;SDS011;27185;52.040;4.490;2023-02-12T00:32:21;12.15;;;7.22;;
41446;SDS011;27185;52.040;4.490;2023-02-12T00:35:07;12.20;;;7.00;;
41446;SDS011;27185;52.040;4.490;2023-02-12T00:37:53;13.20;;;7.30;;
41446;SDS011;27185;52.040;4.490;2023-02-12T00:40:38;9.00;;;7.30;;
41446;SDS011;27185;52.040;4.490;2023-02-12T00:43:24;12.38;;;7.72;;
41446;SDS011;27185;52.040;4.490;2023-02-12T00:46:09;10.20;;;7.78;;
41446;SDS011;27185;52.040;4.490;2023-02-12T00:48:58;13.18;;;7.80;;
41446;SDS011;27185;52.040;4.490;2023-02-12T00:51:43;10.63;;;7.70;;
41446;SDS011;27185;52.040;4.490;2023-02-12T00:54:29;12.00;;;8.15;;
41446;SDS011;27185;52.040;4.490;2023-02-12T00:57:15;10.95;;;7.00;;
41446;SDS011;27185;52.040;4.490;2023-02-12T01:00:01;11.25;;;7.45;;
41446;SDS011;27185;52.040;4.490;2023-02-12T01:02:48;12.05;;;7.40;;
41446;SDS011;27185;52.040;4.490;2023-02-12T01:05:33;12.60;;;6.82;;
41446;SDS011;27185;52.040;4.490;2023-02-12T01:08:20;12.02;;;7.45;;
41446;SDS011;27185;52.040;4.490;2023-02-12T01:11:05;8.63;;;6.35;;
41446;SDS011;27185;52.040;4.490;2023-02-12T01:13:51;10.10;;;6.65;;
41446;SDS011;27185;52.040;4.490;2023-02-12T01:16:37;7.93;;;5.93;;
41446;SDS011;27185;52.040;4.490;2023-02-12T01:19:22;10.15;;;5.45;;
41446;SDS011;27185;52.040;4.490;2023-02-12T01:22:08;9.88;;;6.85;;
41446;SDS011;27185;52.040;4.490;2023-02-12T01:24:54;8.70;;;5.82;;
41446;SDS011;27185;52.040;4.490;2023-02-12T01:27:41;9.00;;;6.22;;
41446;SDS011;27185;52.040;4.490;2023-02-12T01:30:26;9.05;;;5.85;;
41446;SDS011;27185;52.040;4.490;2023-02-12T01:33:12;8.80;;;6.25;;
41446;SDS011;27185;52.040;4.490;2023-02-12T01:35:58;9.65;;;6.63;;
41446;SDS011;27185;52.040;4.490;2023-02-12T01:38:43;9.13;;;5.97;;
41446;SDS011;27185;52.040;4.490;2023-02-12T01:41:30;7.75;;;5.43;;
41446;SDS011;27185;52.040;4.490;2023-02-12T01:44:23;8.50;;;5.85;;
41446;SDS011;27185;52.040;4.490;2023-02-12T01:47:11;10.20;;;5.93;;
41446;SDS011;27185;52.040;4.490;2023-02-12T01:50:01;7.97;;;5.00;;
41446;SDS011;27185;52.040;4.490;2023-02-12T01:52:48;8.95;;;5.70;;
41446;SDS011;27185;52.040;4.490;2023-02-12T01:55:38;8.18;;;5.95;;
41446;SDS011;27185;52.040;4.490;2023-02-12T01:58:25;11.60;;;7.13;;
41446;SDS011;27185;52.040;4.490;2023-02-12T02:01:14;11.75;;;6.25;;
41446;SDS011;27185;52.040;4.490;2023-02-12T02:04:04;8.52;;;5.68;;
41446;SDS011;27185;52.040;4.490;2023-02-12T02:09:43;9.63;;;6.47;;
41446;SDS011;27185;52.040;4.490;2023-02-12T02:12:29;7.38;;;5.22;;
41446;SDS011;27185;52.040;4.490;2023-02-12T02:15:34;10.10;;;6.40;;
41446;SDS011;27185;52.040;4.490;2023-02-12T02:21:44;7.25;;;4.97;;
41446;SDS011;27185;52.040;4.490;2023-02-12T02:28:09;8.55;;;4.45;;
41446;SDS011;27185;52.040;4.490;2023-02-12T02:34:36;6.93;;;3.60;;
41446;SDS011;27185;52.040;4.490;2023-02-12T02:37:39;5.13;;;3.47;;
41446;SDS011;27185;52.040;4.490;2023-02-12T02:40:47;7.30;;;3.17;;
41446;SDS011;27185;52.040;4.490;2023-02-12T02:43:46;4.68;;;3.00;;
41446;SDS011;27185;52.040;4.490;2023-02-12T02:46:35;5.13;;;2.20;;
41446;SDS011;27185;52.040;4.490;2023-02-12T02:49:34;5.93;;;2.50;;
41446;SDS011;27185;52.040;4.490;2023-02-12T02:52:28;5.32;;;2.10;;
41446;SDS011;27185;52.040;4.490;2023-02-12T02:55:24;5.00;;;1.90;;
41446;SDS011;27185;52.040;4.490;2023-02-12T02:58:13;3.58;;;2.08;;
41446;SDS011;27185;52.040;4.490;2023-02-12T03:01:48;5.43;;;1.55;;
41446;SDS011;27185;52.040;4.490;2023-02-12T03:04:59;3.50;;;2.03;;
41446;SDS011;27185;52.040;4.490;2023-02-12T03:07:57;2.97;;;1.60;;
41446;SDS011;27185;52.040;4.490;2023-02-12T03:10:48;5.63;;;1.50;;
41446;SDS011;27185;52.040;4.490;2023-02-12T03:13:44;3.00;;;1.80;;
41446;SDS011;27185;52.040;4.490;2023-02-12T03:16:33;4.68;;;2.05;;
41446;SDS011;27185;52.040;4.490;2023-02-12T03:19:24;3.58;;;1.90;;
41446;SDS011;27185;52.040;4.490;2023-02-12T03:22:15;4.50;;;2.00;;
41446;SDS011;27185;52.040;4.490;2023-02-12T03:37:07;3.50;;;2.03;;
41446;SDS011;27185;52.040;4.490;2023-02-12T03:40:03;4.07;;;2.15;;
41446;SDS011;27185;52.040;4.490;2023-02-12T03:46:49;3.70;;;2.00;;
41446;SDS011;27185;52.040;4.490;2023-02-12T03:52:38;3.42;;;1.77;;
41446;SDS011;27185;52.040;4.490;2023-02-12T03:55:24;5.05;;;2.00;;
41446;SDS011;27185;52.040;4.490;2023-02-12T03:58:11;3.97;;;1.73;;
41446;SDS011;27185;52.040;4.490;2023-02-12T04:01:03;2.78;;;1.50;;
41446;SDS011;27185;52.040;4.490;2023-02-12T04:03:50;3.85;;;2.25;;
41446;SDS011;27185;52.040;4.490;2023-02-12T04:06:35;4.13;;;1.83;;
41446;SDS011;27185;52.040;4.490;2023-02-12T04:09:21;3.90;;;1.50;;
41446;SDS011;27185;52.040;4.490;2023-02-12T04:18:21;3.75;;;1.30;;
41446;SDS011;27185;52.040;4.490;2023-02-12T04:24:40;3.55;;;1.10;;
41446;SDS011;27185;52.040;4.490;2023-02-12T04:27:36;1.80;;;1.00;;
41446;SDS011;27185;52.040;4.490;2023-02-12T04:30:34;3.70;;;1.20;;
41446;SDS011;27185;52.040;4.490;2023-02-12T04:33:27;3.72;;;1.33;;
41446;SDS011;27185;52.040;4.490;2023-02-12T04:36:20;3.42;;;1.35;;
41446;SDS011;27185;52.040;4.490;2023-02-12T04:39:11;3.05;;;1.50;;
41446;SDS011;27185;52.040;4.490;2023-02-12T04:42:03;2.55;;;1.70;;
41446;SDS011;27185;52.040;4.490;2023-02-12T04:44:49;4.22;;;1.92;;
41446;SDS011;27185;52.040;4.490;2023-02-12T04:47:34;4.20;;;1.98;;
41446;SDS011;27185;52.040;4.490;2023-02-12T04:50:20;5.18;;;1.60;;
41446;SDS011;27185;52.040;4.490;2023-02-12T04:53:06;3.35;;;1.92;;
41446;SDS011;27185;52.040;4.490;2023-02-12T04:55:51;3.13;;;2.10;;
41446;SDS011;27185;52.040;4.490;2023-02-12T04:58:38;3.92;;;1.88;;
41446;SDS011;27185;52.040;4.490;2023-02-12T05:01:24;3.33;;;2.42;;
41446;SDS011;27185;52.040;4.490;2023-02-12T05:04:10;4.88;;;2.28;;
41446;SDS011;27185;52.040;4.490;2023-02-12T05:06:58;4.43;;;2.85;;
41446;SDS011;27185;52.040;4.490;2023-02-12T05:09:44;4.03;;;2.60;;
41446;SDS011;27185;52.040;4.490;2023-02-12T05:12:29;3.80;;;3.05;;
41446;SDS011;27185;52.040;4.490;2023-02-12T05:15:15;5.13;;;3.22;;
41446;SDS011;27185;52.040;4.490;2023-02-12T05:18:01;3.95;;;3.47;;
41446;SDS011;27185;52.040;4.490;2023-02-12T05:20:53;5.28;;;3.47;;
41446;SDS011;27185;52.040;4.490;2023-02-12T05:23:40;4.30;;;3.58;;
41446;SDS011;27185;52.040;4.490;2023-02-12T05:26:26;6.30;;;3.88;;
41446;SDS011;27185;52.040;4.490;2023-02-12T05:29:12;6.22;;;4.10;;
41446;SDS011;27185;52.040;4.490;2023-02-12T05:31:58;6.47;;;3.38;;
41446;SDS011;27185;52.040;4.490;2023-02-12T05:34:43;4.60;;;3.75;;
41446;SDS011;27185;52.040;4.490;2023-02-12T05:37:29;5.28;;;3.60;;
41446;SDS011;27185;52.040;4.490;2023-02-12T05:40:15;4.30;;;3.55;;
41446;SDS011;27185;52.040;4.490;2023-02-12T05:43:01;4.82;;;3.65;;
41446;SDS011;27185;52.040;4.490;2023-02-12T05:45:47;6.13;;;4.15;;
41446;SDS011;27185;52.040;4.490;2023-02-12T05:48:32;5.32;;;3.92;;
41446;SDS011;27185;52.040;4.490;2023-02-12T05:51:20;3.88;;;3.45;;
41446;SDS011;27185;52.040;4.490;2023-02-12T05:54:09;5.75;;;3.78;;
41446;SDS011;27185;52.040;4.490;2023-02-12T05:56:54;5.85;;;3.65;;
41446;SDS011;27185;52.040;4.490;2023-02-12T05:59:40;6.15;;;4.03;;
41446;SDS011;27185;52.040;4.490;2023-02-12T06:02:26;5.43;;;4.18;;
41446;SDS011;27185;52.040;4.490;2023-02-12T06:05:13;5.63;;;3.78;;
41446;SDS011;27185;52.040;4.490;2023-02-12T06:07:58;5.47;;;4.13;;
41446;SDS011;27185;52.040;4.490;2023-02-12T06:10:44;4.18;;;3.40;;
41446;SDS011;27185;52.040;4.490;2023-02-12T06:13:30;5.95;;;4.32;;
41446;SDS011;27185;52.040;4.490;2023-02-12T06:16:16;6.03;;;4.20;;
41446;SDS011;27185;52.040;4.490;2023-02-12T06:19:09;5.53;;;4.00;;
41446;SDS011;27185;52.040;4.490;2023-02-12T06:21:55;5.65;;;3.80;;
41446;SDS011;27185;52.040;4.490;2023-02-12T06:24:40;4.57;;;3.67;;
41446;SDS011;27185;52.040;4.490;2023-02-12T06:27:26;6.20;;;3.85;;
41446;SDS011;27185;52.040;4.490;2023-02-12T06:30:12;4.78;;;3.63;;
41446;SDS011;27185;52.040;4.490;2023-02-12T06:32:58;6.55;;;4.03;;
41446;SDS011;27185;52.040;4.490;2023-02-12T06:35:43;5.97;;;4.20;;
41446;SDS011;27185;52.040;4.490;2023-02-12T06:38:29;5.30;;;4.18;;
41446;SDS011;27185;52.040;4.490;2023-02-12T06:41:15;5.95;;;3.85;;
41446;SDS011;27185;52.040;4.490;2023-02-12T06:44:01;5.38;;;4.45;;
41446;SDS011;27185;52.040;4.490;2023-02-12T06:46:46;6.07;;;4.53;;
41446;SDS011;27185;52.040;4.490;2023-02-12T06:49:32;6.03;;;4.15;;
41446;SDS011;27185;52.040;4.490;2023-02-12T06:52:17;6.70;;;3.97;;
41446;SDS011;27185;52.040;4.490;2023-02-12T06:55:05;6.50;;;3.97;;
41446;SDS011;27185;52.040;4.490;2023-02-12T06:57:51;4.50;;;3.67;;
41446;SDS011;27185;52.040;4.490;2023-02-12T07:00:36;4.80;;;3.47;;
41446;SDS011;27185;52.040;4.490;2023-02-12T07:03:22;4.97;;;3.75;;
41446;SDS011;27185;52.040;4.490;2023-02-12T07:06:08;5.20;;;3.83;;
41446;SDS011;27185;52.040;4.490;2023-02-12T07:08:54;5.03;;;3.70;;
41446;SDS011;27185;52.040;4.490;2023-02-12T07:11:40;5.40;;;3.40;;
41446;SDS011;27185;52.040;4.490;2023-02-12T07:14:26;5.20;;;3.92;;
41446;SDS011;27185;52.040;4.490;2023-02-12T07:17:12;5.00;;;3.78;;
41446;SDS011;27185;52.040;4.490;2023-02-12T07:19:57;5.25;;;4.63;;
41446;SDS011;27185;52.040;4.490;2023-02-12T07:22:43;7.93;;;5.00;;
41446;SDS011;27185;52.040;4.490;2023-02-12T07:25:29;7.10;;;5.75;;
41446;SDS011;27185;52.040;4.490;2023-02-12T07:28:14;7.40;;;6.60;;
41446;SDS011;27185;52.040;4.490;2023-02-12T07:33:53;7.85;;;5.97;;
41446;SDS011;27185;52.040;4.490;2023-02-12T07:36:39;7.13;;;5.43;;
41446;SDS011;27185;52.040;4.490;2023-02-12T07:39:26;6.97;;;5.65;;
41446;SDS011;27185;52.040;4.490;2023-02-12T07:42:11;8.55;;;5.68;;
41446;SDS011;27185;52.040;4.490;2023-02-12T07:44:59;7.10;;;6.25;;
41446;SDS011;27185;52.040;4.490;2023-02-12T07:47:44;7.50;;;6.18;;
41446;SDS011;27185;52.040;4.490;2023-02-12T07:50:30;5.85;;;5.25;;
41446;SDS011;27185;52.040;4.490;2023-02-12T07:53:15;8.13;;;6.40;;
41446;SDS011;27185;52.040;4.490;2023-02-12T07:56:03;7.07;;;6.28;;
41446;SDS011;27185;52.040;4.490;2023-02-12T07:58:51;10.10;;;6.85;;
41446;SDS011;27185;52.040;4.490;2023-02-12T08:01:40;7.50;;;6.70;;
41446;SDS011;27185;52.040;4.490;2023-02-12T08:04:27;7.43;;;6.70;;
41446;SDS011;27185;52.040;4.490;2023-02-12T08:07:13;8.55;;;7.55;;
41446;SDS011;27185;52.040;4.490;2023-02-12T08:09:59;9.50;;;7.97;;
41446;SDS011;27185;52.040;4.490;2023-02-12T08:12:45;8.65;;;7.75;;
41446;SDS011;27185;52.040;4.490;2023-02-12T08:15:30;8.93;;;7.65;;
41446;SDS011;27185;52.040;4.490;2023-02-12T08:18:16;9.25;;;8.27;;
41446;SDS011;27185;52.040;4.490;2023-02-12T08:21:02;9.68;;;8.10;;
41446;SDS011;27185;52.040;4.490;2023-02-12T08:23:58;9.48;;;8.00;;
41446;SDS011;27185;52.040;4.490;2023-02-12T08:26:44;9.98;;;8.55;;
41446;SDS011;27185;52.040;4.490;2023-02-12T08:29:30;8.73;;;7.78;;
41446;SDS011;27185;52.040;4.490;2023-02-12T08:32:15;7.97;;;6.80;;
41446;SDS011;27185;52.040;4.490;2023-02-12T08:35:01;8.57;;;7.30;;
41446;SDS011;27185;52.040;4.490;2023-02-12T08:37:47;11.77;;;7.30;;
41446;SDS011;27185;52.040;4.490;2023-02-12T08:40:32;11.10;;;7.40;;
41446;SDS011;27185;52.040;4.490;2023-02-12T08:43:18;8.35;;;6.88;;
41446;SDS011;27185;52.040;4.490;2023-02-12T08:46:05;9.23;;;7.70;;
41446;SDS011;27185;52.040;4.490;2023-02-12T08:51:39;8.20;;;7.13;;
41446;SDS011;27185;52.040;4.490;2023-02-12T08:54:27;12.60;;;8.50;;
41446;SDS011;27185;52.040;4.490;2023-02-12T08:57:14;11.32;;;8.68;;
41446;SDS011;27185;52.040;4.490;2023-02-12T09:00:00;9.38;;;7.68;;
41446;SDS011;27185;52.040;4.490;2023-02-12T09:02:47;9.07;;;7.15;;
41446;SDS011;27185;52.040;4.490;2023-02-12T09:05:35;9.37;;;8.40;;
41446;SDS011;27185;52.040;4.490;2023-02-12T09:08:23;10.05;;;8.32;;
41446;SDS011;27185;52.040;4.490;2023-02-12T09:11:10;10.18;;;8.05;;
41446;SDS011;27185;52.040;4.490;2023-02-12T09:14:05;8.57;;;7.32;;
41446;SDS011;27185;52.040;4.490;2023-02-12T09:16:53;10.43;;;7.70;;
41446;SDS011;27185;52.040;4.490;2023-02-12T09:19:38;10.20;;;6.47;;
41446;SDS011;27185;52.040;4.490;2023-02-12T09:22:24;9.20;;;6.47;;
41446;SDS011;27185;52.040;4.490;2023-02-12T09:25:10;8.57;;;7.13;;
41446;SDS011;27185;52.040;4.490;2023-02-12T09:27:55;8.80;;;6.85;;
41446;SDS011;27185;52.040;4.490;2023-02-12T09:30:41;8.95;;;6.97;;
41446;SDS011;27185;52.040;4.490;2023-02-12T09:33:26;10.23;;;7.32;;
41446;SDS011;27185;52.040;4.490;2023-02-12T09:36:14;12.05;;;7.35;;
41446;SDS011;27185;52.040;4.490;2023-02-12T09:39:00;10.13;;;7.43;;
41446;SDS011;27185;52.040;4.490;2023-02-12T09:41:56;8.82;;;6.28;;
41446;SDS011;27185;52.040;4.490;2023-02-12T09:48:11;10.05;;;6.57;;
41446;SDS011;27185;52.040;4.490;2023-02-12T09:51:03;10.27;;;6.90;;
41446;SDS011;27185;52.040;4.490;2023-02-12T09:53:56;10.07;;;7.35;;
41446;SDS011;27185;52.040;4.490;2023-02-12T09:56:48;9.00;;;6.63;;
41446;SDS011;27185;52.040;4.490;2023-02-12T09:59:42;12.23;;;7.80;;
41446;SDS011;27185;52.040;4.490;2023-02-12T10:02:30;9.57;;;7.68;;
41446;SDS011;27185;52.040;4.490;2023-02-12T10:05:23;10.52;;;8.13;;
41446;SDS011;27185;52.040;4.490;2023-02-12T10:08:28;9.70;;;7.65;;
41446;SDS011;27185;52.040;4.490;2023-02-12T10:11:50;8.80;;;7.13;;
41446;SDS011;27185;52.040;4.490;2023-02-12T10:14:56;11.30;;;7.38;;
41446;SDS011;27185;52.040;4.490;2023-02-12T10:18:16;12.50;;;7.15;;
41446;SDS011;27185;52.040;4.490;2023-02-12T10:21:33;11.88;;;7.63;;
41446;SDS011;27185;52.040;4.490;2023-02-12T10:24:38;10.57;;;7.68;;
41446;SDS011;27185;52.040;4.490;2023-02-12T10:27:37;11.77;;;8.07;;
41446;SDS011;27185;52.040;4.490;2023-02-12T10:30:24;11.35;;;8.00;;
41446;SDS011;27185;52.040;4.490;2023-02-12T10:33:16;10.88;;;7.90;;
41446;SDS011;27185;52.040;4.490;2023-02-12T10:36:15;9.90;;;7.63;;
41446;SDS011;27185;52.040;4.490;2023-02-12T10:39:26;8.88;;;7.35;;
41446;SDS011;27185;52.040;4.490;2023-02-12T10:42:38;12.55;;;7.35;;
41446;SDS011;27185;52.040;4.490;2023-02-12T10:45:38;10.88;;;7.70;;
41446;SDS011;27185;52.040;4.490;2023-02-12T10:48:29;12.23;;;7.93;;
41446;SDS011;27185;52.040;4.490;2023-02-12T10:51:24;10.90;;;7.05;;
41446;SDS011;27185;52.040;4.490;2023-02-12T10:54:38;10.70;;;7.18;;
41446;SDS011;27185;52.040;4.490;2023-02-12T10:57:26;8.85;;;6.57;;
41446;SDS011;27185;52.040;4.490;2023-02-12T11:00:33;7.43;;;6.45;;
41446;SDS011;27185;52.040;4.490;2023-02-12T11:03:21;10.40;;;7.05;;
41446;SDS011;27185;52.040;4.490;2023-02-12T11:06:15;9.35;;;7.50;;
41446;SDS011;27185;52.040;4.490;2023-02-12T11:09:19;9.57;;;7.10;;
41446;SDS011;27185;52.040;4.490;2023-02-12T11:20:49;8.65;;;6.50;;
41446;SDS011;27185;52.040;4.490;2023-02-12T11:23:40;10.38;;;7.20;;
41446;SDS011;27185;52.040;4.490;2023-02-12T11:26:28;11.52;;;7.57;;
41446;SDS011;27185;52.040;4.490;2023-02-12T11:29:21;9.70;;;7.82;;
41446;SDS011;27185;52.040;4.490;2023-02-12T11:32:10;13.00;;;8.13;;
41446;SDS011;27185;52.040;4.490;2023-02-12T11:35:05;11.73;;;7.55;;
41446;SDS011;27185;52.040;4.490;2023-02-12T11:38:01;10.00;;;7.57;;
41446;SDS011;27185;52.040;4.490;2023-02-12T11:40:47;9.32;;;7.72;;
41446;SDS011;27185;52.040;4.490;2023-02-12T11:43:34;9.95;;;7.85;;
41446;SDS011;27185;52.040;4.490;2023-02-12T11:46:24;10.52;;;8.18;;
41446;SDS011;27185;52.040;4.490;2023-02-12T11:52:03;12.45;;;8.38;;
41446;SDS011;27185;52.040;4.490;2023-02-12T11:54:51;14.93;;;9.50;;
41446;SDS011;27185;52.040;4.490;2023-02-12T11:57:44;11.90;;;8.95;;
41446;SDS011;27185;52.040;4.490;2023-02-12T12:00:33;12.80;;;8.07;;
41446;SDS011;27185;52.040;4.490;2023-02-12T12:03:27;12.98;;;9.02;;
41446;SDS011;27185;52.040;4.490;2023-02-12T12:06:28;13.18;;;9.52;;
41446;SDS011;27185;52.040;4.490;2023-02-12T12:12:22;12.45;;;9.15;;
41446;SDS011;27185;52.040;4.490;2023-02-12T12:28:04;21.55;;;10.32;;
41446;SDS011;27185;52.040;4.490;2023-02-12T12:31:08;12.98;;;9.48;;
41446;SDS011;27185;52.040;4.490;2023-02-12T12:34:13;12.90;;;9.77;;
41446;SDS011;27185;52.040;4.490;2023-02-12T12:38:02;15.70;;;10.55;;
41446;SDS011;27185;52.040;4.490;2023-02-12T12:43:25;14.43;;;10.15;;
41446;SDS011;27185;52.040;4.490;2023-02-12T12:49:14;12.75;;;9.02;;
41446;SDS011;27185;52.040;4.490;2023-02-12T12:55:15;11.40;;;6.90;;
41446;SDS011;27185;52.040;4.490;2023-02-12T12:58:09;10.07;;;6.60;;
41446;SDS011;27185;52.040;4.490;2023-02-12T13:04:27;8.05;;;5.88;;
41446;SDS011;27185;52.040;4.490;2023-02-12T13:13:24;11.35;;;7.35;;
41446;SDS011;27185;52.040;4.490;2023-02-12T13:16:28;11.23;;;7.30;;
41446;SDS011;27185;52.040;4.490;2023-02-12T13:19:29;9.25;;;6.88;;
41446;SDS011;27185;52.040;4.490;2023-02-12T13:25:47;10.02;;;7.13;;
41446;SDS011;27185;52.040;4.490;2023-02-12T13:28:51;8.80;;;6.22;;
41446;SDS011;27185;52.040;4.490;2023-02-12T13:31:48;12.57;;;7.47;;
41446;SDS011;27185;52.040;4.490;2023-02-12T13:34:38;10.32;;;7.05;;
41446;SDS011;27185;52.040;4.490;2023-02-12T13:37:34;13.07;;;8.23;;
41446;SDS011;27185;52.040;4.490;2023-02-12T13:40:25;10.95;;;7.80;;
41446;SDS011;27185;52.040;4.490;2023-02-12T13:43:18;12.40;;;8.00;;
41446;SDS011;27185;52.040;4.490;2023-02-12T13:56:02;9.90;;;7.43;;
41446;SDS011;27185;52.040;4.490;2023-02-12T13:59:19;13.20;;;8.63;;
41446;SDS011;27185;52.040;4.490;2023-02-12T14:02:25;16.23;;;9.63;;
41446;SDS011;27185;52.040;4.490;2023-02-12T14:05:14;13.88;;;10.02;;
41446;SDS011;27185;52.040;4.490;2023-02-12T14:08:32;13.50;;;10.65;;
41446;SDS011;27185;52.040;4.490;2023-02-12T14:11:22;15.25;;;11.18;;
41446;SDS011;27185;52.040;4.490;2023-02-12T14:14:10;13.93;;;10.32;;
41446;SDS011;27185;52.040;4.490;2023-02-12T14:16:56;14.57;;;10.57;;
41446;SDS011;27185;52.040;4.490;2023-02-12T14:19:53;13.85;;;10.43;;
41446;SDS011;27185;52.040;4.490;2023-02-12T14:25:47;15.43;;;10.73;;
41446;SDS011;27185;52.040;4.490;2023-02-12T14:28:53;20.40;;;13.18;;
41446;SDS011;27185;52.040;4.490;2023-02-12T14:31:40;18.92;;;12.20;;
41446;SDS011;27185;52.040;4.490;2023-02-12T14:37:15;15.32;;;11.55;;
41446;SDS011;27185;52.040;4.490;2023-02-12T14:46:53;11.60;;;9.25;;
41446;SDS011;27185;52.040;4.490;2023-02-12T14:52:32;11.50;;;8.27;;
41446;SDS011;27185;52.040;4.490;2023-02-12T14:55:24;10.70;;;7.20;;
41446;SDS011;27185;52.040;4.490;2023-02-12T14:58:16;10.52;;;7.78;;
41446;SDS011;27185;52.040;4.490;2023-02-12T15:01:08;10.50;;;7.90;;
41446;SDS011;27185;52.040;4.490;2023-02-12T15:03:54;11.65;;;8.05;;
41446;SDS011;27185;52.040;4.490;2023-02-12T15:06:50;9.43;;;7.55;;
41446;SDS011;27185;52.040;4.490;2023-02-12T15:10:02;11.05;;;7.70;;
41446;SDS011;27185;52.040;4.490;2023-02-12T15:16:14;9.38;;;7.55;;
41446;SDS011;27185;52.040;4.490;2023-02-12T15:22:38;10.83;;;8.43;;
41446;SDS011;27185;52.040;4.490;2023-02-12T15:25:29;10.13;;;6.97;;
41446;SDS011;27185;52.040;4.490;2023-02-12T15:28:20;9.73;;;7.45;;
41446;SDS011;27185;52.040;4.490;2023-02-12T15:31:09;10.88;;;8.38;;
41446;SDS011;27185;52.040;4.490;2023-02-12T15:34:01;11.98;;;8.43;;
41446;SDS011;27185;52.040;4.490;2023-02-12T15:36:48;11.32;;;8.77;;
41446;SDS011;27185;52.040;4.490;2023-02-12T15:39:41;14.57;;;9.48;;
41446;SDS011;27185;52.040;4.490;2023-02-12T15:45:26;15.10;;;8.90;;
41446;SDS011;27185;52.040;4.490;2023-02-12T15:48:17;14.90;;;9.68;;
41446;SDS011;27185;52.040;4.490;2023-02-12T15:51:09;14.45;;;10.65;;
41446;SDS011;27185;52.040;4.490;2023-02-12T15:54:03;16.10;;;11.55;;
41446;SDS011;27185;52.040;4.490;2023-02-12T15:56:50;19.52;;;12.43;;
41446;SDS011;27185;52.040;4.490;2023-02-12T15:59:38;18.53;;;12.87;;
41446;SDS011;27185;52.040;4.490;2023-02-12T16:02:26;20.15;;;13.60;;
41446;SDS011;27185;52.040;4.490;2023-02-12T16:05:14;17.92;;;12.68;;
41446;SDS011;27185;52.040;4.490;2023-02-12T16:08:00;19.00;;;13.45;;
41446;SDS011;27185;52.040;4.490;2023-02-12T16:10:47;17.83;;;11.98;;
41446;SDS011;27185;52.040;4.490;2023-02-12T16:13:35;20.15;;;13.75;;
41446;SDS011;27185;52.040;4.490;2023-02-12T16:16:22;19.88;;;12.30;;
41446;SDS011;27185;52.040;4.490;2023-02-12T16:19:26;17.88;;;12.93;;
41446;SDS011;27185;52.040;4.490;2023-02-12T16:22:14;20.50;;;12.15;;
41446;SDS011;27185;52.040;4.490;2023-02-12T16:25:03;19.60;;;13.00;;
41446;SDS011;27185;52.040;4.490;2023-02-12T16:28:04;21.00;;;13.85;;
41446;SDS011;27185;52.040;4.490;2023-02-12T16:30:52;20.05;;;13.77;;
41446;SDS011;27185;52.040;4.490;2023-02-12T16:33:55;18.15;;;12.85;;
41446;SDS011;27185;52.040;4.490;2023-02-12T16:36:46;16.35;;;12.10;;
41446;SDS011;27185;52.040;4.490;2023-02-12T16:48:22;22.88;;;14.32;;
41446;SDS011;27185;52.040;4.490;2023-02-12T16:51:22;19.42;;;13.77;;
41446;SDS011;27185;52.040;4.490;2023-02-12T16:57:10;19.98;;;14.25;;
41446;SDS011;27185;52.040;4.490;2023-02-12T16:59:56;23.00;;;14.18;;
41446;SDS011;27185;52.040;4.490;2023-02-12T17:02:42;21.17;;;13.50;;
41446;SDS011;27185;52.040;4.490;2023-02-12T17:05:28;22.20;;;14.35;;
41446;SDS011;27185;52.040;4.490;2023-02-12T17:08:15;20.55;;;13.88;;
41446;SDS011;27185;52.040;4.490;2023-02-12T17:11:02;21.15;;;14.00;;
41446;SDS011;27185;52.040;4.490;2023-02-12T17:13:49;23.30;;;14.40;;
41446;SDS011;27185;52.040;4.490;2023-02-12T17:16:36;26.13;;;15.35;;
41446;SDS011;27185;52.040;4.490;2023-02-12T17:19:22;23.00;;;14.70;;
41446;SDS011;27185;52.040;4.490;2023-02-12T17:22:07;22.63;;;15.02;;
41446;SDS011;27185;52.040;4.490;2023-02-12T17:25:08;22.70;;;15.45;;
41446;SDS011;27185;52.040;4.490;2023-02-12T17:27:56;23.73;;;15.85;;
41446;SDS011;27185;52.040;4.490;2023-02-12T17:30:42;24.50;;;15.48;;
41446;SDS011;27185;52.040;4.490;2023-02-12T17:33:27;23.05;;;16.25;;
41446;SDS011;27185;52.040;4.490;2023-02-12T17:36:13;23.45;;;15.60;;
41446;SDS011;27185;52.040;4.490;2023-02-12T17:38:59;25.27;;;16.05;;
41446;SDS011;27185;52.040;4.490;2023-02-12T17:44:32;23.48;;;14.75;;
41446;SDS011;27185;52.040;4.490;2023-02-12T17:47:18;25.95;;;16.10;;
41446;SDS011;27185;52.040;4.490;2023-02-12T17:50:08;25.17;;;16.67;;
41446;SDS011;27185;52.040;4.490;2023-02-12T17:52:55;22.40;;;14.85;;
41446;SDS011;27185;52.040;4.490;2023-02-12T17:55:41;24.80;;;15.82;;
41446;SDS011;27185;52.040;4.490;2023-02-12T17:58:26;25.00;;;16.20;;
41446;SDS011;27185;52.040;4.490;2023-02-12T18:01:13;24.85;;;15.35;;
41446;SDS011;27185;52.040;4.490;2023-02-12T18:04:00;26.15;;;16.00;;
41446;SDS011;27185;52.040;4.490;2023-02-12T18:06:46;24.85;;;14.80;;
41446;SDS011;27185;52.040;4.490;2023-02-12T18:09:32;26.17;;;16.80;;
41446;SDS011;27185;52.040;4.490;2023-02-12T18:12:17;26.42;;;17.40;;
41446;SDS011;27185;52.040;4.490;2023-02-12T18:15:03;27.25;;;17.08;;
41446;SDS011;27185;52.040;4.490;2023-02-12T18:17:51;27.75;;;17.65;;
41446;SDS011;27185;52.040;4.490;2023-02-12T18:20:38;28.80;;;16.20;;
41446;SDS011;27185;52.040;4.490;2023-02-12T18:23:24;27.40;;;15.90;;
41446;SDS011;27185;52.040;4.490;2023-02-12T18:26:11;28.92;;;17.73;;
41446;SDS011;27185;52.040;4.490;2023-02-12T18:28:59;29.38;;;17.17;;
41446;SDS011;27185;52.040;4.490;2023-02-12T18:31:45;26.48;;;16.60;;
41446;SDS011;27185;52.040;4.490;2023-02-12T18:34:31;25.17;;;16.65;;
41446;SDS011;27185;52.040;4.490;2023-02-12T18:37:16;27.77;;;17.17;;
41446;SDS011;27185;52.040;4.490;2023-02-12T18:40:02;26.65;;;17.27;;
41446;SDS011;27185;52.040;4.490;2023-02-12T18:42:48;28.23;;;16.92;;
41446;SDS011;27185;52.040;4.490;2023-02-12T18:45:33;27.27;;;17.38;;
41446;SDS011;27185;52.040;4.490;2023-02-12T18:48:19;28.25;;;17.67;;
41446;SDS011;27185;52.040;4.490;2023-02-12T18:51:05;26.75;;;16.73;;
41446;SDS011;27185;52.040;4.490;2023-02-12T18:53:53;26.60;;;17.33;;
41446;SDS011;27185;52.040;4.490;2023-02-12T18:56:43;27.83;;;16.52;;
41446;SDS011;27185;52.040;4.490;2023-02-12T18:59:32;23.73;;;15.65;;
41446;SDS011;27185;52.040;4.490;2023-02-12T19:02:17;24.98;;;16.00;;
41446;SDS011;27185;52.040;4.490;2023-02-12T19:05:03;25.80;;;17.45;;
41446;SDS011;27185;52.040;4.490;2023-02-12T19:07:49;29.67;;;17.98;;
41446;SDS011;27185;52.040;4.490;2023-02-12T19:10:37;28.08;;;18.48;;
41446;SDS011;27185;52.040;4.490;2023-02-12T19:13:23;30.27;;;17.45;;
41446;SDS011;27185;52.040;4.490;2023-02-12T19:16:13;35.88;;;21.40;;
41446;SDS011;27185;52.040;4.490;2023-02-12T19:19:00;32.65;;;20.35;;
41446;SDS011;27185;52.040;4.490;2023-02-12T19:21:46;36.83;;;21.00;;
41446;SDS011;27185;52.040;4.490;2023-02-12T19:24:32;34.63;;;20.50;;